Time,TemperatureF,DewpointF,PressureIn,WindDirection,WindDirectionDegrees,WindSpeedMPH,WindSpeedGustMPH,Humidity,HourlyPrecipIn,Conditions,Clouds,dailyrainin,SoftwareType,DateUTC
2013-05-05 00:00:00,39.0,37.0,30.27,North,1,0.0,3.0,91,-99.99,,,-99.99,,2013-05-05 04:00:00,
2013-05-05 00:23:00,39.0,37.0,30.27,North,1,0.0,3.0,91,-99.99,,,-99.99,,2013-05-05 04:23:00,
2013-05-05 00:33:00,39.0,37.0,30.27,North,1,0.0,3.0,91,-99.99,,,-99.99,,2013-05-05 04:33:00,
2013-05-05 00:43:00,39.0,37.0,30.27,North,1,0.0,3.0,91,-99.99,,,-99.99,,2013-05-05 04:43:00,
2013-05-05 00:53:00,39.0,37.0,30.27,North,1,0.0,3.0,91,-99.99,,,-99.99,,2013-05-05 04:53:00,
2013-05-05 01:00:00,41.0,39.0,30.27,NW,306,0.0,4.0,92,-99.99,,,-99.99,,2013-05-05 05:00:00,
2013-05-05 01:32:00,41.0,39.0,30.27,NW,306,0.0,4.0,92,-99.99,,,-99.99,,2013-05-05 05:32:00,
2013-05-05 01:42:00,41.0,39.0,30.27,NW,306,0.0,4.0,92,-99.99,,,-99.99,,2013-05-05 05:42:00,
2013-05-05 01:52:00,41.0,39.0,30.27,NW,306,0.0,4.0,92,-99.99,,,-99.99,,2013-05-05 05:52:00,
2013-05-05 03:00:00,43.0,40.0,30.24,North,9,0.0,4.0,89,-99.99,,,-99.99,,2013-05-05 07:00:00,
2013-05-05 03:22:00,43.0,40.0,30.24,North,9,0.0,4.0,89,-99.99,,,-99.99,,2013-05-05 07:22:00,
2013-05-05 03:32:00,43.0,40.0,30.24,North,9,0.0,4.0,89,-99.99,,,-99.99,,2013-05-05 07:32:00,
2013-05-05 03:42:00,43.0,40.0,30.24,North,9,0.0,4.0,89,-99.99,,,-99.99,,2013-05-05 07:42:00,
2013-05-05 03:52:00,43.0,40.0,30.24,North,9,0.0,4.0,89,-99.99,,,-99.99,,2013-05-05 07:52:00,
2013-05-05 04:00:00,41.0,38.0,30.24,NE,37,4.0,7.0,88,-99.99,,,-99.99,,2013-05-05 08:00:00,
2013-05-05 04:22:00,41.0,38.0,30.24,NE,37,4.0,7.0,88,-99.99,,,-99.99,,2013-05-05 08:22:00,
2013-05-05 04:32:00,41.0,38.0,30.24,NE,37,4.0,7.0,88,-99.99,,,-99.99,,2013-05-05 08:32:00,
2013-05-05 04:42:00,41.0,38.0,30.24,NE,37,4.0,7.0,88,-99.99,,,-99.99,,2013-05-05 08:42:00,
2013-05-05 04:53:00,41.0,38.0,30.24,NE,37,4.0,7.0,88,-99.99,,,-99.99,,2013-05-05 08:53:00,
2013-05-05 05:00:00,41.0,38.0,30.24,NNE,22,4.0,7.0,88,-99.99,,,-99.99,,2013-05-05 09:00:00,
2013-05-05 05:22:00,41.0,38.0,30.24,NNE,22,4.0,7.0,88,-99.99,,,-99.99,,2013-05-05 09:22:00,
2013-05-05 05:33:00,41.0,38.0,30.24,NNE,22,4.0,7.0,88,-99.99,,,-99.99,,2013-05-05 09:33:00,
2013-05-05 05:42:00,41.0,38.0,30.24,NNE,22,4.0,7.0,88,-99.99,,,-99.99,,2013-05-05 09:42:00,
2013-05-05 05:52:00,41.0,38.0,30.24,NNE,22,4.0,7.0,88,-99.99,,,-99.99,,2013-05-05 09:52:00,
2013-05-05 06:00:00,42.0,38.0,30.24,NE,34,4.0,8.0,84,-99.99,,,-99.99,,2013-05-05 10:00:00,
2013-05-05 06:32:00,42.0,38.0,30.24,NE,34,4.0,8.0,84,-99.99,,,-99.99,,2013-05-05 10:32:00,
2013-05-05 06:42:00,42.0,38.0,30.24,NE,34,4.0,8.0,84,-99.99,,,-99.99,,2013-05-05 10:42:00,
2013-05-05 06:53:00,42.0,38.0,30.24,NE,34,4.0,8.0,84,-99.99,,,-99.99,,2013-05-05 10:53:00,
2013-05-05 07:00:00,45.0,38.0,30.24,NE,49,7.0,9.0,79,-99.99,,,-99.99,,2013-05-05 11:00:00,
2013-05-05 07:22:00,45.0,38.0,30.24,NE,49,7.0,9.0,79,-99.99,,,-99.99,,2013-05-05 11:22:00,
2013-05-05 07:32:00,45.0,38.0,30.24,NE,49,7.0,9.0,79,-99.99,,,-99.99,,2013-05-05 11:32:00,
2013-05-05 07:42:00,45.0,38.0,30.24,NE,49,7.0,9.0,79,-99.99,,,-99.99,,2013-05-05 11:42:00,
2013-05-05 07:52:00,45.0,38.0,30.24,NE,49,7.0,9.0,79,-99.99,,,-99.99,,2013-05-05 11:52:00,
2013-05-05 08:00:00,47.0,38.0,30.27,East,95,4.0,16.0,71,-99.99,,,-99.99,,2013-05-05 12:00:00,
2013-05-05 08:22:00,47.0,38.0,30.27,East,95,4.0,16.0,71,-99.99,,,-99.99,,2013-05-05 12:22:00,
2013-05-05 08:32:00,47.0,38.0,30.27,East,95,4.0,16.0,71,-99.99,,,-99.99,,2013-05-05 12:32:00,
2013-05-05 08:42:00,47.0,38.0,30.27,East,95,4.0,16.0,71,-99.99,,,-99.99,,2013-05-05 12:42:00,
2013-05-05 08:52:00,47.0,38.0,30.27,East,95,4.0,16.0,71,-99.99,,,-99.99,,2013-05-05 12:52:00,
2013-05-05 09:00:00,48.0,39.0,30.27,ENE,69,7.0,20.0,70,-99.99,,,-99.99,,2013-05-05 13:00:00,
2013-05-05 09:21:00,48.0,39.0,30.27,ENE,69,7.0,20.0,70,-99.99,,,-99.99,,2013-05-05 13:21:00,
2013-05-05 09:32:00,48.0,39.0,30.27,ENE,69,7.0,20.0,70,-99.99,,,-99.99,,2013-05-05 13:32:00,
2013-05-05 09:42:00,48.0,39.0,30.27,ENE,69,7.0,20.0,70,-99.99,,,-99.99,,2013-05-05 13:42:00,
2013-05-05 09:52:00,48.0,39.0,30.27,ENE,69,7.0,20.0,70,-99.99,,,-99.99,,2013-05-05 13:52:00,
2013-05-05 10:00:00,49.0,39.0,30.27,East,82,8.0,19.0,67,-99.99,,,-99.99,,2013-05-05 14:00:00,
2013-05-05 10:32:00,49.0,39.0,30.27,East,82,8.0,19.0,67,-99.99,,,-99.99,,2013-05-05 14:32:00,
2013-05-05 10:42:00,49.0,39.0,30.27,East,82,8.0,19.0,67,-99.99,,,-99.99,,2013-05-05 14:42:00,
2013-05-05 10:52:00,49.0,39.0,30.27,East,82,8.0,19.0,67,-99.99,,,-99.99,,2013-05-05 14:52:00,
2013-05-05 11:00:00,50.0,38.0,30.27,East,91,11.0,19.0,63,-99.99,,,-99.99,,2013-05-05 15:00:00,
2013-05-05 11:33:00,50.0,38.0,30.27,East,91,11.0,19.0,63,-99.99,,,-99.99,,2013-05-05 15:33:00,
2013-05-05 11:43:00,50.0,38.0,30.27,East,91,11.0,19.0,63,-99.99,,,-99.99,,2013-05-05 15:43:00,
2013-05-05 11:53:00,50.0,38.0,30.27,East,91,11.0,19.0,63,-99.99,,,-99.99,,2013-05-05 15:53:00,
2013-05-05 12:00:00,52.0,38.0,30.27,ENE,78,7.0,19.0,59,-99.99,,,-99.99,,2013-05-05 16:00:00,
2013-05-05 12:32:00,52.0,38.0,30.27,ENE,78,7.0,19.0,59,-99.99,,,-99.99,,2013-05-05 16:32:00,
2013-05-05 12:42:00,52.0,38.0,30.27,ENE,78,7.0,19.0,59,-99.99,,,-99.99,,2013-05-05 16:42:00,
2013-05-05 12:53:00,52.0,38.0,30.27,ENE,78,7.0,19.0,59,-99.99,,,-99.99,,2013-05-05 16:53:00,
2013-05-05 13:00:00,55.0,40.0,30.24,South,174,2.0,19.0,56,-99.99,,,-99.99,,2013-05-05 17:00:00,
2013-05-05 13:23:00,55.0,40.0,30.24,South,174,2.0,19.0,56,-99.99,,,-99.99,,2013-05-05 17:23:00,
2013-05-05 13:32:00,55.0,40.0,30.24,South,174,2.0,19.0,56,-99.99,,,-99.99,,2013-05-05 17:32:00,
2013-05-05 13:42:00,55.0,40.0,30.24,South,174,2.0,19.0,56,-99.99,,,-99.99,,2013-05-05 17:42:00,
2013-05-05 13:52:00,55.0,40.0,30.24,South,174,2.0,19.0,56,-99.99,,,-99.99,,2013-05-05 17:52:00,
2013-05-05 14:00:00,56.0,39.0,30.24,ENE,74,6.0,18.0,53,-99.99,,,-99.99,,2013-05-05 18:00:00,
2013-05-05 14:22:00,56.0,39.0,30.24,ENE,74,6.0,18.0,53,-99.99,,,-99.99,,2013-05-05 18:22:00,
2013-05-05 14:32:00,56.0,39.0,30.24,ENE,74,6.0,18.0,53,-99.99,,,-99.99,,2013-05-05 18:32:00,
2013-05-05 14:42:00,56.0,39.0,30.24,ENE,74,6.0,18.0,53,-99.99,,,-99.99,,2013-05-05 18:42:00,
2013-05-05 14:52:00,56.0,39.0,30.24,ENE,74,6.0,18.0,53,-99.99,,,-99.99,,2013-05-05 18:52:00,
2013-05-05 15:00:00,57.0,40.0,30.24,ENE,62,10.0,18.0,53,-99.99,,,-99.99,,2013-05-05 19:00:00,
2013-05-05 15:22:00,57.0,40.0,30.24,ENE,62,10.0,18.0,53,-99.99,,,-99.99,,2013-05-05 19:22:00,
2013-05-05 15:32:00,57.0,40.0,30.24,ENE,62,10.0,18.0,53,-99.99,,,-99.99,,2013-05-05 19:32:00,
2013-05-05 15:42:00,57.0,40.0,30.24,ENE,62,10.0,18.0,53,-99.99,,,-99.99,,2013-05-05 19:42:00,
2013-05-05 15:52:00,57.0,40.0,30.24,ENE,62,10.0,18.0,53,-99.99,,,-99.99,,2013-05-05 19:52:00,
2013-05-05 16:00:00,55.0,41.0,30.21,East,82,7.0,19.0,60,-99.99,,,-99.99,,2013-05-05 20:00:00,
2013-05-05 16:21:00,55.0,41.0,30.21,East,82,7.0,19.0,60,-99.99,,,-99.99,,2013-05-05 20:21:00,
2013-05-05 16:32:00,55.0,41.0,30.21,East,82,7.0,19.0,60,-99.99,,,-99.99,,2013-05-05 20:32:00,
2013-05-05 16:42:00,55.0,41.0,30.21,East,82,7.0,19.0,60,-99.99,,,-99.99,,2013-05-05 20:42:00,
2013-05-05 16:52:00,55.0,41.0,30.21,East,82,7.0,19.0,60,-99.99,,,-99.99,,2013-05-05 20:52:00,
2013-05-05 17:00:00,55.0,40.0,30.21,ENE,67,10.0,21.0,57,-99.99,,,-99.99,,2013-05-05 21:00:00,
2013-05-05 17:33:00,55.0,40.0,30.21,ENE,67,10.0,21.0,57,-99.99,,,-99.99,,2013-05-05 21:33:00,
2013-05-05 17:42:00,55.0,40.0,30.21,ENE,67,10.0,21.0,57,-99.99,,,-99.99,,2013-05-05 21:42:00,
2013-05-05 17:53:00,55.0,40.0,30.21,ENE,67,10.0,21.0,57,-99.99,,,-99.99,,2013-05-05 21:53:00,
2013-05-05 18:00:00,54.0,39.0,30.21,ENE,61,9.0,18.0,56,-99.99,,,-99.99,,2013-05-05 22:00:00,
2013-05-05 18:22:00,54.0,39.0,30.21,ENE,61,9.0,18.0,56,-99.99,,,-99.99,,2013-05-05 22:22:00,
2013-05-05 18:34:00,54.0,39.0,30.21,ENE,61,9.0,18.0,56,-99.99,,,-99.99,,2013-05-05 22:34:00,
2013-05-05 18:42:00,54.0,39.0,30.21,ENE,61,9.0,18.0,56,-99.99,,,-99.99,,2013-05-05 22:42:00,
2013-05-05 18:52:00,54.0,39.0,30.21,ENE,61,9.0,18.0,56,-99.99,,,-99.99,,2013-05-05 22:52:00,
2013-05-05 19:00:00,53.0,40.0,30.21,East,86,4.0,14.0,61,-99.99,,,-99.99,,2013-05-05 23:00:00,
2013-05-05 19:22:00,53.0,40.0,30.21,East,86,4.0,14.0,61,-99.99,,,-99.99,,2013-05-05 23:22:00,
2013-05-05 19:32:00,53.0,40.0,30.21,East,86,4.0,14.0,61,-99.99,,,-99.99,,2013-05-05 23:32:00,
2013-05-05 19:42:00,53.0,40.0,30.21,East,86,4.0,14.0,61,-99.99,,,-99.99,,2013-05-05 23:42:00,
2013-05-05 19:52:00,53.0,40.0,30.21,East,86,4.0,14.0,61,-99.99,,,-99.99,,2013-05-05 23:52:00,
2013-05-05 20:00:00,49.0,40.0,30.21,East,93,2.0,12.0,73,-99.99,,,-99.99,,2013-05-06 00:00:00,
2013-05-05 20:22:00,49.0,40.0,30.21,East,93,2.0,12.0,73,-99.99,,,-99.99,,2013-05-06 00:22:00,
2013-05-05 20:32:00,49.0,40.0,30.21,East,93,2.0,12.0,73,-99.99,,,-99.99,,2013-05-06 00:32:00,
2013-05-05 20:42:00,49.0,40.0,30.21,East,93,2.0,12.0,73,-99.99,,,-99.99,,2013-05-06 00:42:00,
2013-05-05 20:52:00,49.0,40.0,30.21,East,93,2.0,12.0,73,-99.99,,,-99.99,,2013-05-06 00:52:00,
2013-05-05 21:00:00,45.0,40.0,30.24,SE,135,0.0,6.0,83,-99.99,,,-99.99,,2013-05-06 01:00:00,
2013-05-05 21:21:00,45.0,40.0,30.24,SE,135,0.0,6.0,83,-99.99,,,-99.99,,2013-05-06 01:21:00,
2013-05-05 21:32:00,45.0,40.0,30.24,SE,135,0.0,6.0,83,-99.99,,,-99.99,,2013-05-06 01:32:00,
2013-05-05 21:42:00,45.0,40.0,30.24,SE,135,0.0,6.0,83,-99.99,,,-99.99,,2013-05-06 01:42:00,
2013-05-05 21:52:00,45.0,40.0,30.24,SE,135,0.0,6.0,83,-99.99,,,-99.99,,2013-05-06 01:52:00,
2013-05-05 22:00:00,42.0,39.0,30.24,NNE,20,0.0,0.0,91,-99.99,,,-99.99,,2013-05-06 02:00:00,
2013-05-05 22:32:00,42.0,39.0,30.24,NNE,20,0.0,0.0,91,-99.99,,,-99.99,,2013-05-06 02:32:00,
2013-05-05 22:42:00,42.0,39.0,30.24,NNE,20,0.0,0.0,91,-99.99,,,-99.99,,2013-05-06 02:42:00,
2013-05-05 22:52:00,42.0,39.0,30.24,NNE,20,0.0,0.0,91,-99.99,,,-99.99,,2013-05-06 02:52:00,
2013-05-05 23:00:00,41.0,38.0,30.21,East,99,0.0,5.0,90,-99.99,,,-99.99,,2013-05-06 03:00:00,
2013-05-05 23:22:00,41.0,38.0,30.21,East,99,0.0,5.0,90,-99.99,,,-99.99,,2013-05-06 03:22:00,
2013-05-05 23:33:00,41.0,38.0,30.21,East,99,0.0,5.0,90,-99.99,,,-99.99,,2013-05-06 03:33:00,
2013-05-05 23:42:00,41.0,38.0,30.21,East,99,0.0,5.0,90,-99.99,,,-99.99,,2013-05-06 03:42:00,
2013-05-05 23:53:00,41.0,38.0,30.21,East,99,0.0,5.0,90,-99.99,,,-99.99,,2013-05-06 03:53:00,